sensor_id;sensor_type;location;lat;lon;timestamp;temperature;humidity
13642;DHT22;6894;52.196;9.904;2023-12-20T00:02:10;7.80;1.00
13642;DHT22;6894;52.196;9.904;2023-12-20T00:04:36;7.80;1.00
13642;DHT22;6894;52.196;9.904;2023-12-20T00:07:03;7.80;1.00
13642;DHT22;6894;52.196;9.904;2023-12-20T00:09:30;7.80;1.00
13642;DHT22;6894;52.196;9.904;2023-12-20T00:11:58;7.80;1.00
13642;DHT22;6894;52.196;9.904;2023-12-20T00:14:25;7.80;1.00
13642;DHT22;6894;52.196;9.904;2023-12-20T00:16:51;7.80;1.00
13642;DHT22;6894;52.196;9.904;2023-12-20T00:19:18;7.80;1.00
13642;DHT22;6894;52.196;9.904;2023-12-20T00:21:45;7.80;1.00
13642;DHT22;6894;52.196;9.904;2023-12-20T00:24:12;7.80;1.00
13642;DHT22;6894;52.196;9.904;2023-12-20T00:26:39;7.80;1.00
13642;DHT22;6894;52.196;9.904;2023-12-20T00:29:07;7.80;1.00
13642;DHT22;6894;52.196;9.904;2023-12-20T00:31:33;7.80;1.00
13642;DHT22;6894;52.196;9.904;2023-12-20T00:34:00;7.80;1.00
13642;DHT22;6894;52.196;9.904;2023-12-20T00:36:27;7.80;1.00
13642;DHT22;6894;52.196;9.904;2023-12-20T00:38:53;7.80;1.00
13642;DHT22;6894;52.196;9.904;2023-12-20T00:41:20;7.70;1.00
13642;DHT22;6894;52.196;9.904;2023-12-20T00:43:47;7.70;1.00
13642;DHT22;6894;52.196;9.904;2023-12-20T00:46:15;7.70;1.00
13642;DHT22;6894;52.196;9.904;2023-12-20T00:48:42;7.60;1.00
13642;DHT22;6894;52.196;9.904;2023-12-20T00:51:11;7.60;1.00
13642;DHT22;6894;52.196;9.904;2023-12-20T00:53:37;7.50;1.00
13642;DHT22;6894;52.196;9.904;2023-12-20T00:56:04;7.50;1.00
13642;DHT22;6894;52.196;9.904;2023-12-20T00:58:31;7.50;1.00
13642;DHT22;6894;52.196;9.904;2023-12-20T01:00:58;7.40;1.00
13642;DHT22;6894;52.196;9.904;2023-12-20T01:03:26;7.40;1.00
13642;DHT22;6894;52.196;9.904;2023-12-20T01:05:52;7.40;1.00
13642;DHT22;6894;52.196;9.904;2023-12-20T01:08:19;7.30;1.00
13642;DHT22;6894;52.196;9.904;2023-12-20T01:10:46;7.30;1.00
13642;DHT22;6894;52.196;9.904;2023-12-20T01:13:13;7.20;1.00
13642;DHT22;6894;52.196;9.904;2023-12-20T01:15:39;7.20;1.00
13642;DHT22;6894;52.196;9.904;2023-12-20T01:18:07;7.20;1.00
13642;DHT22;6894;52.196;9.904;2023-12-20T01:20:35;7.20;1.00
13642;DHT22;6894;52.196;9.904;2023-12-20T01:23:02;7.10;1.00
13642;DHT22;6894;52.196;9.904;2023-12-20T01:25:29;7.10;1.00
13642;DHT22;6894;52.196;9.904;2023-12-20T01:27:55;7.10;1.00
13642;DHT22;6894;52.196;9.904;2023-12-20T01:30:22;7.00;1.00
13642;DHT22;6894;52.196;9.904;2023-12-20T01:32:49;6.90;1.00
13642;DHT22;6894;52.196;9.904;2023-12-20T01:35:16;6.90;1.00
13642;DHT22;6894;52.196;9.904;2023-12-20T01:37:44;6.90;1.00
13642;DHT22;6894;52.196;9.904;2023-12-20T01:40:11;6.90;1.00
13642;DHT22;6894;52.196;9.904;2023-12-20T01:42:38;6.90;1.00
13642;DHT22;6894;52.196;9.904;2023-12-20T01:45:05;6.90;1.00
13642;DHT22;6894;52.196;9.904;2023-12-20T01:47:32;6.80;99.90
13642;DHT22;6894;52.196;9.904;2023-12-20T01:49:58;6.80;99.90
13642;DHT22;6894;52.196;9.904;2023-12-20T01:52:25;7.20;99.90
13642;DHT22;6894;52.196;9.904;2023-12-20T01:54:54;6.70;99.90
13642;DHT22;6894;52.196;9.904;2023-12-20T01:57:28;6.80;99.90
13642;DHT22;6894;52.196;9.904;2023-12-20T01:59:55;6.70;99.90
13642;DHT22;6894;52.196;9.904;2023-12-20T02:02:22;6.70;99.90
13642;DHT22;6894;52.196;9.904;2023-12-20T02:04:49;6.70;99.90
13642;DHT22;6894;52.196;9.904;2023-12-20T02:07:16;6.70;99.90
13642;DHT22;6894;52.196;9.904;2023-12-20T02:09:44;6.70;99.90
13642;DHT22;6894;52.196;9.904;2023-12-20T02:12:12;6.70;99.90
13642;DHT22;6894;52.196;9.904;2023-12-20T02:14:39;6.70;99.90
13642;DHT22;6894;52.196;9.904;2023-12-20T02:17:06;6.70;99.90
13642;DHT22;6894;52.196;9.904;2023-12-20T02:19:33;6.70;99.90
13642;DHT22;6894;52.196;9.904;2023-12-20T02:22:08;6.70;99.90
13642;DHT22;6894;52.196;9.904;2023-12-20T02:24:35;6.80;99.90
13642;DHT22;6894;52.196;9.904;2023-12-20T02:27:02;6.70;99.90
13642;DHT22;6894;52.196;9.904;2023-12-20T02:29:29;6.80;99.90
13642;DHT22;6894;52.196;9.904;2023-12-20T02:31:56;6.80;99.90
13642;DHT22;6894;52.196;9.904;2023-12-20T02:34:23;6.80;99.90
13642;DHT22;6894;52.196;9.904;2023-12-20T02:36:49;6.70;99.90
13642;DHT22;6894;52.196;9.904;2023-12-20T02:39:18;6.70;99.90
13642;DHT22;6894;52.196;9.904;2023-12-20T02:41:45;6.70;99.90
13642;DHT22;6894;52.196;9.904;2023-12-20T02:44:12;6.60;99.90
13642;DHT22;6894;52.196;9.904;2023-12-20T02:46:38;6.50;99.90
13642;DHT22;6894;52.196;9.904;2023-12-20T02:49:06;6.60;99.90
13642;DHT22;6894;52.196;9.904;2023-12-20T02:51:32;6.50;99.90
13642;DHT22;6894;52.196;9.904;2023-12-20T02:53:58;6.50;99.90
13642;DHT22;6894;52.196;9.904;2023-12-20T02:56:26;6.40;99.90
13642;DHT22;6894;52.196;9.904;2023-12-20T02:58:53;6.40;95.00
13642;DHT22;6894;52.196;9.904;2023-12-20T03:01:20;6.40;1.00
13642;DHT22;6894;52.196;9.904;2023-12-20T03:03:46;6.40;1.00
13642;DHT22;6894;52.196;9.904;2023-12-20T03:06:16;6.40;1.00
13642;DHT22;6894;52.196;9.904;2023-12-20T03:08:44;6.40;1.00
13642;DHT22;6894;52.196;9.904;2023-12-20T03:11:10;6.40;1.00
13642;DHT22;6894;52.196;9.904;2023-12-20T03:13:38;6.40;1.00
13642;DHT22;6894;52.196;9.904;2023-12-20T03:16:08;6.40;1.00
13642;DHT22;6894;52.196;9.904;2023-12-20T03:18:35;6.40;99.90
13642;DHT22;6894;52.196;9.904;2023-12-20T03:21:02;6.40;1.00
13642;DHT22;6894;52.196;9.904;2023-12-20T03:23:29;6.40;99.90
13642;DHT22;6894;52.196;9.904;2023-12-20T03:25:57;6.30;99.90
13642;DHT22;6894;52.196;9.904;2023-12-20T03:28:24;6.30;99.90
13642;DHT22;6894;52.196;9.904;2023-12-20T03:30:52;6.30;1.00
13642;DHT22;6894;52.196;9.904;2023-12-20T03:33:19;6.30;99.90
13642;DHT22;6894;52.196;9.904;2023-12-20T03:35:46;6.30;99.90
13642;DHT22;6894;52.196;9.904;2023-12-20T03:38:13;6.30;99.90
13642;DHT22;6894;52.196;9.904;2023-12-20T03:40:39;6.20;99.90
13642;DHT22;6894;52.196;9.904;2023-12-20T03:43:06;6.20;99.90
13642;DHT22;6894;52.196;9.904;2023-12-20T03:45:33;6.20;1.00
13642;DHT22;6894;52.196;9.904;2023-12-20T03:48:03;6.20;99.90
13642;DHT22;6894;52.196;9.904;2023-12-20T03:50:30;6.20;99.90
13642;DHT22;6894;52.196;9.904;2023-12-20T03:52:57;6.20;99.90
13642;DHT22;6894;52.196;9.904;2023-12-20T03:55:24;6.20;1.00
13642;DHT22;6894;52.196;9.904;2023-12-20T03:57:50;6.20;1.00
13642;DHT22;6894;52.196;9.904;2023-12-20T04:00:17;6.20;1.00
13642;DHT22;6894;52.196;9.904;2023-12-20T04:02:44;6.20;1.00
13642;DHT22;6894;52.196;9.904;2023-12-20T04:05:12;6.90;1.00
13642;DHT22;6894;52.196;9.904;2023-12-20T04:07:39;6.30;1.00
13642;DHT22;6894;52.196;9.904;2023-12-20T04:10:06;6.20;1.00
13642;DHT22;6894;52.196;9.904;2023-12-20T04:12:33;6.30;1.00
13642;DHT22;6894;52.196;9.904;2023-12-20T04:15:00;7.10;1.00
13642;DHT22;6894;52.196;9.904;2023-12-20T04:17:27;6.30;1.00
13642;DHT22;6894;52.196;9.904;2023-12-20T04:19:53;6.40;1.00
13642;DHT22;6894;52.196;9.904;2023-12-20T04:22:22;7.30;1.00
13642;DHT22;6894;52.196;9.904;2023-12-20T04:24:48;6.40;85.60
13642;DHT22;6894;52.196;9.904;2023-12-20T04:27:15;6.50;1.00
13642;DHT22;6894;52.196;9.904;2023-12-20T04:29:42;6.50;1.00
13642;DHT22;6894;52.196;9.904;2023-12-20T04:32:08;6.50;1.00
13642;DHT22;6894;52.196;9.904;2023-12-20T04:34:36;6.50;1.00
13642;DHT22;6894;52.196;9.904;2023-12-20T04:37:03;6.50;1.00
13642;DHT22;6894;52.196;9.904;2023-12-20T04:39:31;6.50;1.00
13642;DHT22;6894;52.196;9.904;2023-12-20T04:41:58;6.60;1.00
13642;DHT22;6894;52.196;9.904;2023-12-20T04:44:25;6.60;1.00
13642;DHT22;6894;52.196;9.904;2023-12-20T04:46:52;6.60;1.00
13642;DHT22;6894;52.196;9.904;2023-12-20T04:49:18;6.60;1.00
13642;DHT22;6894;52.196;9.904;2023-12-20T04:51:45;6.60;1.00
13642;DHT22;6894;52.196;9.904;2023-12-20T04:54:12;6.70;1.00
13642;DHT22;6894;52.196;9.904;2023-12-20T04:56:41;6.60;1.00
13642;DHT22;6894;52.196;9.904;2023-12-20T04:59:08;6.70;1.00
13642;DHT22;6894;52.196;9.904;2023-12-20T05:01:35;6.70;1.00
13642;DHT22;6894;52.196;9.904;2023-12-20T05:04:01;6.70;1.00
13642;DHT22;6894;52.196;9.904;2023-12-20T05:06:28;6.70;1.00
13642;DHT22;6894;52.196;9.904;2023-12-20T05:08:55;6.70;1.00
13642;DHT22;6894;52.196;9.904;2023-12-20T05:11:22;6.60;1.00
13642;DHT22;6894;52.196;9.904;2023-12-20T05:13:50;6.60;1.00
13642;DHT22;6894;52.196;9.904;2023-12-20T05:16:16;6.70;1.00
13642;DHT22;6894;52.196;9.904;2023-12-20T05:18:46;6.70;1.00
13642;DHT22;6894;52.196;9.904;2023-12-20T05:21:13;6.70;1.00
13642;DHT22;6894;52.196;9.904;2023-12-20T05:23:40;6.70;99.90
13642;DHT22;6894;52.196;9.904;2023-12-20T05:26:07;6.70;1.00
13642;DHT22;6894;52.196;9.904;2023-12-20T05:28:33;6.70;1.00
13642;DHT22;6894;52.196;9.904;2023-12-20T05:31:01;6.70;1.00
13642;DHT22;6894;52.196;9.904;2023-12-20T05:33:28;6.70;1.00
13642;DHT22;6894;52.196;9.904;2023-12-20T05:35:55;6.70;99.90
13642;DHT22;6894;52.196;9.904;2023-12-20T05:38:22;6.80;99.90
13642;DHT22;6894;52.196;9.904;2023-12-20T05:40:48;6.70;99.90
13642;DHT22;6894;52.196;9.904;2023-12-20T05:43:15;6.70;1.00
13642;DHT22;6894;52.196;9.904;2023-12-20T05:45:42;6.70;1.00
13642;DHT22;6894;52.196;9.904;2023-12-20T05:48:10;6.80;99.90
13642;DHT22;6894;52.196;9.904;2023-12-20T05:50:37;6.70;1.00
13642;DHT22;6894;52.196;9.904;2023-12-20T05:53:04;6.80;1.00
13642;DHT22;6894;52.196;9.904;2023-12-20T05:55:31;6.80;99.90
13642;DHT22;6894;52.196;9.904;2023-12-20T05:57:58;6.80;1.00
13642;DHT22;6894;52.196;9.904;2023-12-20T06:00:24;6.80;1.00
13642;DHT22;6894;52.196;9.904;2023-12-20T06:02:51;6.80;1.00
13642;DHT22;6894;52.196;9.904;2023-12-20T06:05:19;6.70;1.00
13642;DHT22;6894;52.196;9.904;2023-12-20T06:07:46;6.70;1.00
13642;DHT22;6894;52.196;9.904;2023-12-20T06:10:13;6.70;1.00
13642;DHT22;6894;52.196;9.904;2023-12-20T06:12:40;6.70;41.60
13642;DHT22;6894;52.196;9.904;2023-12-20T06:15:07;6.70;1.00
13642;DHT22;6894;52.196;9.904;2023-12-20T06:17:34;6.70;99.90
13642;DHT22;6894;52.196;9.904;2023-12-20T06:20:01;6.60;1.00
13642;DHT22;6894;52.196;9.904;2023-12-20T06:22:34;6.60;1.00
13642;DHT22;6894;52.196;9.904;2023-12-20T06:25:01;6.60;1.00
13642;DHT22;6894;52.196;9.904;2023-12-20T06:27:28;6.60;1.00
13642;DHT22;6894;52.196;9.904;2023-12-20T06:29:55;6.60;1.00
13642;DHT22;6894;52.196;9.904;2023-12-20T06:32:22;6.60;1.00
13642;DHT22;6894;52.196;9.904;2023-12-20T06:34:49;6.50;1.00
13642;DHT22;6894;52.196;9.904;2023-12-20T06:37:16;6.60;99.90
13642;DHT22;6894;52.196;9.904;2023-12-20T06:39:44;6.70;99.90
13642;DHT22;6894;52.196;9.904;2023-12-20T06:42:13;6.70;1.00
13642;DHT22;6894;52.196;9.904;2023-12-20T06:44:39;6.70;1.00
13642;DHT22;6894;52.196;9.904;2023-12-20T06:47:06;6.70;1.00
13642;DHT22;6894;52.196;9.904;2023-12-20T06:49:33;6.70;15.50
13642;DHT22;6894;52.196;9.904;2023-12-20T06:51:59;6.60;1.00
13642;DHT22;6894;52.196;9.904;2023-12-20T06:54:26;6.60;99.90
13642;DHT22;6894;52.196;9.904;2023-12-20T06:56:54;6.50;99.90
13642;DHT22;6894;52.196;9.904;2023-12-20T06:59:21;6.50;1.00
13642;DHT22;6894;52.196;9.904;2023-12-20T07:01:48;6.50;1.00
13642;DHT22;6894;52.196;9.904;2023-12-20T07:04:16;6.50;1.00
13642;DHT22;6894;52.196;9.904;2023-12-20T07:06:45;6.50;1.00
13642;DHT22;6894;52.196;9.904;2023-12-20T07:09:13;6.60;1.00
13642;DHT22;6894;52.196;9.904;2023-12-20T07:11:39;6.50;1.00
13642;DHT22;6894;52.196;9.904;2023-12-20T07:14:08;6.50;1.00
13642;DHT22;6894;52.196;9.904;2023-12-20T07:16:35;6.50;99.90
13642;DHT22;6894;52.196;9.904;2023-12-20T07:19:01;6.50;99.90
13642;DHT22;6894;52.196;9.904;2023-12-20T07:21:28;6.50;99.90
13642;DHT22;6894;52.196;9.904;2023-12-20T07:23:55;6.60;1.00
13642;DHT22;6894;52.196;9.904;2023-12-20T07:26:22;6.60;1.00
13642;DHT22;6894;52.196;9.904;2023-12-20T07:28:48;6.60;1.00
13642;DHT22;6894;52.196;9.904;2023-12-20T07:31:16;6.60;99.90
13642;DHT22;6894;52.196;9.904;2023-12-20T07:33:43;6.60;1.00
13642;DHT22;6894;52.196;9.904;2023-12-20T07:36:10;6.60;99.90
13642;DHT22;6894;52.196;9.904;2023-12-20T07:38:37;6.50;1.00
13642;DHT22;6894;52.196;9.904;2023-12-20T07:41:04;6.60;99.90
13642;DHT22;6894;52.196;9.904;2023-12-20T07:43:31;6.50;99.90
13642;DHT22;6894;52.196;9.904;2023-12-20T07:46:04;6.50;99.90
13642;DHT22;6894;52.196;9.904;2023-12-20T07:48:32;6.60;99.90
13642;DHT22;6894;52.196;9.904;2023-12-20T07:50:59;6.60;99.90
13642;DHT22;6894;52.196;9.904;2023-12-20T07:53:25;6.60;99.90
13642;DHT22;6894;52.196;9.904;2023-12-20T07:55:52;6.70;99.90
13642;DHT22;6894;52.196;9.904;2023-12-20T07:58:19;6.70;99.90
13642;DHT22;6894;52.196;9.904;2023-12-20T08:00:46;6.60;1.00
13642;DHT22;6894;52.196;9.904;2023-12-20T08:03:13;6.70;1.00
13642;DHT22;6894;52.196;9.904;2023-12-20T08:05:41;6.70;99.90
13642;DHT22;6894;52.196;9.904;2023-12-20T08:08:07;6.60;1.00
13642;DHT22;6894;52.196;9.904;2023-12-20T08:10:34;6.70;1.00
13642;DHT22;6894;52.196;9.904;2023-12-20T08:13:01;6.80;99.90
13642;DHT22;6894;52.196;9.904;2023-12-20T08:15:28;6.80;99.90
13642;DHT22;6894;52.196;9.904;2023-12-20T08:17:54;6.80;1.00
13642;DHT22;6894;52.196;9.904;2023-12-20T08:20:21;6.80;20.00
13642;DHT22;6894;52.196;9.904;2023-12-20T08:22:49;6.90;1.00
13642;DHT22;6894;52.196;9.904;2023-12-20T08:25:16;6.90;1.00
13642;DHT22;6894;52.196;9.904;2023-12-20T08:27:43;6.90;1.00
13642;DHT22;6894;52.196;9.904;2023-12-20T08:30:10;6.90;1.00
13642;DHT22;6894;52.196;9.904;2023-12-20T08:32:38;7.30;1.00
13642;DHT22;6894;52.196;9.904;2023-12-20T08:35:05;6.90;1.00
13642;DHT22;6894;52.196;9.904;2023-12-20T08:37:32;6.90;1.00
13642;DHT22;6894;52.196;9.904;2023-12-20T08:40:00;7.00;1.00
13642;DHT22;6894;52.196;9.904;2023-12-20T08:42:26;6.90;1.00
13642;DHT22;6894;52.196;9.904;2023-12-20T08:44:56;6.90;1.00
13642;DHT22;6894;52.196;9.904;2023-12-20T08:47:23;7.00;1.00
13642;DHT22;6894;52.196;9.904;2023-12-20T08:49:50;6.90;1.00
13642;DHT22;6894;52.196;9.904;2023-12-20T08:52:18;6.90;1.00
13642;DHT22;6894;52.196;9.904;2023-12-20T08:54:44;7.00;1.00
13642;DHT22;6894;52.196;9.904;2023-12-20T08:57:12;7.00;1.00
13642;DHT22;6894;52.196;9.904;2023-12-20T08:59:39;7.00;99.90
13642;DHT22;6894;52.196;9.904;2023-12-20T09:02:06;7.10;99.90
13642;DHT22;6894;52.196;9.904;2023-12-20T09:04:32;7.10;1.00
13642;DHT22;6894;52.196;9.904;2023-12-20T09:07:00;7.10;1.00
13642;DHT22;6894;52.196;9.904;2023-12-20T09:09:27;7.10;1.00
13642;DHT22;6894;52.196;9.904;2023-12-20T09:11:54;7.10;1.00
13642;DHT22;6894;52.196;9.904;2023-12-20T09:14:22;7.10;99.90
13642;DHT22;6894;52.196;9.904;2023-12-20T09:16:49;7.10;1.00
13642;DHT22;6894;52.196;9.904;2023-12-20T09:19:17;7.00;1.00
13642;DHT22;6894;52.196;9.904;2023-12-20T09:21:43;7.10;1.00
13642;DHT22;6894;52.196;9.904;2023-12-20T09:24:10;7.10;1.00
13642;DHT22;6894;52.196;9.904;2023-12-20T09:26:37;7.00;99.90
13642;DHT22;6894;52.196;9.904;2023-12-20T09:29:05;7.10;1.00
13642;DHT22;6894;52.196;9.904;2023-12-20T09:31:36;7.10;1.00
13642;DHT22;6894;52.196;9.904;2023-12-20T09:34:03;7.10;1.00
13642;DHT22;6894;52.196;9.904;2023-12-20T09:36:30;7.10;1.00
13642;DHT22;6894;52.196;9.904;2023-12-20T09:39:00;7.20;99.90
13642;DHT22;6894;52.196;9.904;2023-12-20T09:41:27;7.20;1.00
13642;DHT22;6894;52.196;9.904;2023-12-20T09:43:54;7.20;1.00
13642;DHT22;6894;52.196;9.904;2023-12-20T09:46:24;7.20;1.00
13642;DHT22;6894;52.196;9.904;2023-12-20T09:48:54;7.20;99.90
13642;DHT22;6894;52.196;9.904;2023-12-20T09:51:21;7.30;1.00
13642;DHT22;6894;52.196;9.904;2023-12-20T09:53:48;7.30;1.00
13642;DHT22;6894;52.196;9.904;2023-12-20T09:56:16;7.40;1.00
13642;DHT22;6894;52.196;9.904;2023-12-20T09:58:43;7.40;99.90
13642;DHT22;6894;52.196;9.904;2023-12-20T10:01:10;7.40;51.60
13642;DHT22;6894;52.196;9.904;2023-12-20T10:03:39;7.40;1.00
13642;DHT22;6894;52.196;9.904;2023-12-20T10:06:08;7.60;1.00
13642;DHT22;6894;52.196;9.904;2023-12-20T10:08:35;7.60;99.90
13642;DHT22;6894;52.196;9.904;2023-12-20T10:11:02;7.70;1.00
13642;DHT22;6894;52.196;9.904;2023-12-20T10:13:29;7.60;1.00
13642;DHT22;6894;52.196;9.904;2023-12-20T10:15:56;7.60;99.90
13642;DHT22;6894;52.196;9.904;2023-12-20T10:18:23;7.60;99.90
13642;DHT22;6894;52.196;9.904;2023-12-20T10:20:49;7.70;1.00
13642;DHT22;6894;52.196;9.904;2023-12-20T10:23:18;7.70;1.00
13642;DHT22;6894;52.196;9.904;2023-12-20T10:25:56;7.70;99.90
13642;DHT22;6894;52.196;9.904;2023-12-20T10:28:23;7.70;1.00
13642;DHT22;6894;52.196;9.904;2023-12-20T10:30:53;7.60;1.00
13642;DHT22;6894;52.196;9.904;2023-12-20T10:33:24;7.60;1.00
13642;DHT22;6894;52.196;9.904;2023-12-20T10:35:50;7.60;99.90
13642;DHT22;6894;52.196;9.904;2023-12-20T10:38:19;7.50;1.00
13642;DHT22;6894;52.196;9.904;2023-12-20T10:40:46;7.50;1.00
13642;DHT22;6894;52.196;9.904;2023-12-20T10:43:13;7.60;1.00
13642;DHT22;6894;52.196;9.904;2023-12-20T10:45:41;7.70;99.90
13642;DHT22;6894;52.196;9.904;2023-12-20T10:48:10;7.90;1.00
13642;DHT22;6894;52.196;9.904;2023-12-20T10:50:38;8.00;57.30
13642;DHT22;6894;52.196;9.904;2023-12-20T10:53:06;7.90;99.90
13642;DHT22;6894;52.196;9.904;2023-12-20T10:55:34;7.80;1.00
13642;DHT22;6894;52.196;9.904;2023-12-20T10:58:04;7.80;1.00
13642;DHT22;6894;52.196;9.904;2023-12-20T11:00:35;7.80;99.90
13642;DHT22;6894;52.196;9.904;2023-12-20T11:03:02;7.80;99.90
13642;DHT22;6894;52.196;9.904;2023-12-20T11:05:36;7.70;99.90
13642;DHT22;6894;52.196;9.904;2023-12-20T11:08:09;7.70;99.90
13642;DHT22;6894;52.196;9.904;2023-12-20T11:10:43;7.70;1.00
13642;DHT22;6894;52.196;9.904;2023-12-20T11:13:17;7.70;1.00
13642;DHT22;6894;52.196;9.904;2023-12-20T11:15:47;7.70;99.90
13642;DHT22;6894;52.196;9.904;2023-12-20T11:18:15;7.60;1.00
13642;DHT22;6894;52.196;9.904;2023-12-20T11:20:42;7.60;99.90
13642;DHT22;6894;52.196;9.904;2023-12-20T11:23:09;7.50;1.00
13642;DHT22;6894;52.196;9.904;2023-12-20T11:25:47;7.50;1.00
13642;DHT22;6894;52.196;9.904;2023-12-20T11:28:15;7.50;1.00
13642;DHT22;6894;52.196;9.904;2023-12-20T11:30:46;7.40;18.80
13642;DHT22;6894;52.196;9.904;2023-12-20T11:33:14;7.30;99.90
13642;DHT22;6894;52.196;9.904;2023-12-20T11:35:41;7.30;99.90
13642;DHT22;6894;52.196;9.904;2023-12-20T11:38:08;7.30;1.00
13642;DHT22;6894;52.196;9.904;2023-12-20T11:40:35;7.30;1.00
13642;DHT22;6894;52.196;9.904;2023-12-20T11:43:04;7.30;1.00
13642;DHT22;6894;52.196;9.904;2023-12-20T11:45:31;7.30;1.00
13642;DHT22;6894;52.196;9.904;2023-12-20T11:47:58;7.30;1.00
13642;DHT22;6894;52.196;9.904;2023-12-20T11:50:25;7.20;1.00
13642;DHT22;6894;52.196;9.904;2023-12-20T11:52:52;7.20;1.00
13642;DHT22;6894;52.196;9.904;2023-12-20T11:55:20;7.30;1.00
13642;DHT22;6894;52.196;9.904;2023-12-20T11:57:47;7.30;1.00
13642;DHT22;6894;52.196;9.904;2023-12-20T12:00:16;7.30;1.00
13642;DHT22;6894;52.196;9.904;2023-12-20T12:02:43;7.30;1.00
13642;DHT22;6894;52.196;9.904;2023-12-20T12:05:10;7.30;1.00
13642;DHT22;6894;52.196;9.904;2023-12-20T12:07:36;7.30;1.00
13642;DHT22;6894;52.196;9.904;2023-12-20T12:10:04;7.30;1.00
13642;DHT22;6894;52.196;9.904;2023-12-20T12:12:31;7.30;1.00
13642;DHT22;6894;52.196;9.904;2023-12-20T12:14:58;7.20;1.00
13642;DHT22;6894;52.196;9.904;2023-12-20T12:17:26;6.90;99.90
13642;DHT22;6894;52.196;9.904;2023-12-20T12:20:02;6.50;1.00
13642;DHT22;6894;52.196;9.904;2023-12-20T12:22:29;6.20;1.00
13642;DHT22;6894;52.196;9.904;2023-12-20T12:24:59;6.10;1.00
13642;DHT22;6894;52.196;9.904;2023-12-20T12:27:26;5.90;99.90
13642;DHT22;6894;52.196;9.904;2023-12-20T12:30:04;5.80;1.00
13642;DHT22;6894;52.196;9.904;2023-12-20T12:32:34;5.70;1.00
13642;DHT22;6894;52.196;9.904;2023-12-20T12:35:03;5.70;1.00
13642;DHT22;6894;52.196;9.904;2023-12-20T12:37:33;5.60;1.00
13642;DHT22;6894;52.196;9.904;2023-12-20T12:40:00;5.50;1.00
13642;DHT22;6894;52.196;9.904;2023-12-20T12:42:27;5.50;1.00
13642;DHT22;6894;52.196;9.904;2023-12-20T12:44:54;5.50;1.00
13642;DHT22;6894;52.196;9.904;2023-12-20T12:47:21;5.60;1.00
13642;DHT22;6894;52.196;9.904;2023-12-20T12:49:51;5.70;1.00
13642;DHT22;6894;52.196;9.904;2023-12-20T12:52:18;5.70;99.90
13642;DHT22;6894;52.196;9.904;2023-12-20T12:54:45;5.80;1.00
13642;DHT22;6894;52.196;9.904;2023-12-20T12:57:13;5.80;99.90
13642;DHT22;6894;52.196;9.904;2023-12-20T12:59:40;5.70;1.00
13642;DHT22;6894;52.196;9.904;2023-12-20T13:02:06;5.70;99.90
13642;DHT22;6894;52.196;9.904;2023-12-20T13:04:33;5.80;1.00
13642;DHT22;6894;52.196;9.904;2023-12-20T13:07:01;5.80;1.00
13642;DHT22;6894;52.196;9.904;2023-12-20T13:09:28;5.80;1.00
13642;DHT22;6894;52.196;9.904;2023-12-20T13:11:55;5.80;1.00
13642;DHT22;6894;52.196;9.904;2023-12-20T13:14:21;5.90;99.90
13642;DHT22;6894;52.196;9.904;2023-12-20T13:16:48;5.80;1.00
13642;DHT22;6894;52.196;9.904;2023-12-20T13:19:15;5.90;99.90
13642;DHT22;6894;52.196;9.904;2023-12-20T13:21:41;5.90;1.00
13642;DHT22;6894;52.196;9.904;2023-12-20T13:24:09;6.00;1.00
13642;DHT22;6894;52.196;9.904;2023-12-20T13:26:36;6.00;99.90
13642;DHT22;6894;52.196;9.904;2023-12-20T13:29:03;5.10;1.00
13642;DHT22;6894;52.196;9.904;2023-12-20T13:31:30;6.20;1.00
13642;DHT22;6894;52.196;9.904;2023-12-20T13:33:57;6.30;99.90
13642;DHT22;6894;52.196;9.904;2023-12-20T13:36:24;6.30;1.00
13642;DHT22;6894;52.196;9.904;2023-12-20T13:38:50;6.30;99.90
13642;DHT22;6894;52.196;9.904;2023-12-20T13:41:18;6.30;99.90
13642;DHT22;6894;52.196;9.904;2023-12-20T13:43:45;6.50;99.90
13642;DHT22;6894;52.196;9.904;2023-12-20T13:46:12;6.50;1.00
13642;DHT22;6894;52.196;9.904;2023-12-20T13:48:39;6.60;99.90
13642;DHT22;6894;52.196;9.904;2023-12-20T13:51:07;6.60;1.00
13642;DHT22;6894;52.196;9.904;2023-12-20T13:53:33;6.70;98.40
13642;DHT22;6894;52.196;9.904;2023-12-20T13:56:00;6.70;1.00
13642;DHT22;6894;52.196;9.904;2023-12-20T13:58:28;6.70;1.00
13642;DHT22;6894;52.196;9.904;2023-12-20T14:00:55;6.70;99.90
13642;DHT22;6894;52.196;9.904;2023-12-20T14:03:22;6.70;99.90
13642;DHT22;6894;52.196;9.904;2023-12-20T14:05:49;6.70;1.00
13642;DHT22;6894;52.196;9.904;2023-12-20T14:08:15;6.70;99.90
13642;DHT22;6894;52.196;9.904;2023-12-20T14:10:42;6.80;99.90
13642;DHT22;6894;52.196;9.904;2023-12-20T14:13:09;6.80;99.90
13642;DHT22;6894;52.196;9.904;2023-12-20T14:15:37;6.80;99.90
13642;DHT22;6894;52.196;9.904;2023-12-20T14:18:04;6.70;1.00
13642;DHT22;6894;52.196;9.904;2023-12-20T14:20:33;6.80;1.00
13642;DHT22;6894;52.196;9.904;2023-12-20T14:23:00;6.70;1.00
13642;DHT22;6894;52.196;9.904;2023-12-20T14:25:27;7.20;99.90
13642;DHT22;6894;52.196;9.904;2023-12-20T14:27:54;6.80;20.80
13642;DHT22;6894;52.196;9.904;2023-12-20T14:30:20;6.70;99.90
13642;DHT22;6894;52.196;9.904;2023-12-20T14:32:49;6.80;1.00
13642;DHT22;6894;52.196;9.904;2023-12-20T14:35:15;6.70;1.00
13642;DHT22;6894;52.196;9.904;2023-12-20T14:37:42;6.80;99.90
13642;DHT22;6894;52.196;9.904;2023-12-20T14:40:11;6.70;90.70
13642;DHT22;6894;52.196;9.904;2023-12-20T14:42:40;6.70;99.90
13642;DHT22;6894;52.196;9.904;2023-12-20T14:45:08;6.80;71.50
13642;DHT22;6894;52.196;9.904;2023-12-20T14:47:35;6.70;99.90
13642;DHT22;6894;52.196;9.904;2023-12-20T14:50:04;6.70;1.00
13642;DHT22;6894;52.196;9.904;2023-12-20T14:52:32;6.80;1.00
13642;DHT22;6894;52.196;9.904;2023-12-20T14:54:59;6.70;1.00
13642;DHT22;6894;52.196;9.904;2023-12-20T14:57:26;6.80;1.00
13642;DHT22;6894;52.196;9.904;2023-12-20T14:59:54;6.70;1.00
13642;DHT22;6894;52.196;9.904;2023-12-20T15:02:21;6.70;1.00
13642;DHT22;6894;52.196;9.904;2023-12-20T15:04:48;6.70;1.00
13642;DHT22;6894;52.196;9.904;2023-12-20T15:07:17;7.40;76.70
13642;DHT22;6894;52.196;9.904;2023-12-20T15:09:44;6.70;99.90
13642;DHT22;6894;52.196;9.904;2023-12-20T15:12:13;6.70;1.00
13642;DHT22;6894;52.196;9.904;2023-12-20T15:14:40;6.70;1.00
13642;DHT22;6894;52.196;9.904;2023-12-20T15:17:06;6.70;99.90
13642;DHT22;6894;52.196;9.904;2023-12-20T15:19:33;6.70;99.90
13642;DHT22;6894;52.196;9.904;2023-12-20T15:22:00;6.60;99.90
13642;DHT22;6894;52.196;9.904;2023-12-20T15:24:28;6.60;79.20
13642;DHT22;6894;52.196;9.904;2023-12-20T15:27:04;6.60;99.90
13642;DHT22;6894;52.196;9.904;2023-12-20T15:29:30;6.60;78.20
13642;DHT22;6894;52.196;9.904;2023-12-20T15:31:57;6.60;99.90
13642;DHT22;6894;52.196;9.904;2023-12-20T15:34:24;6.60;70.30
13642;DHT22;6894;52.196;9.904;2023-12-20T15:36:51;6.60;1.00
13642;DHT22;6894;52.196;9.904;2023-12-20T15:39:18;6.60;1.00
13642;DHT22;6894;52.196;9.904;2023-12-20T15:41:46;6.60;1.00
13642;DHT22;6894;52.196;9.904;2023-12-20T15:44:12;7.30;99.90
13642;DHT22;6894;52.196;9.904;2023-12-20T15:46:39;6.60;99.90
13642;DHT22;6894;52.196;9.904;2023-12-20T15:49:06;6.60;1.00
13642;DHT22;6894;52.196;9.904;2023-12-20T15:51:33;6.60;99.90
13642;DHT22;6894;52.196;9.904;2023-12-20T15:54:00;6.60;1.00
13642;DHT22;6894;52.196;9.904;2023-12-20T15:56:31;6.70;1.00
13642;DHT22;6894;52.196;9.904;2023-12-20T15:58:59;6.60;1.00
13642;DHT22;6894;52.196;9.904;2023-12-20T16:01:26;6.60;91.20
13642;DHT22;6894;52.196;9.904;2023-12-20T16:03:53;6.50;1.00
13642;DHT22;6894;52.196;9.904;2023-12-20T16:06:19;6.50;1.00
13642;DHT22;6894;52.196;9.904;2023-12-20T16:08:46;6.50;1.00
13642;DHT22;6894;52.196;9.904;2023-12-20T16:11:13;6.40;1.00
13642;DHT22;6894;52.196;9.904;2023-12-20T16:13:40;6.30;99.90